Archiv-/Tagesdaten

--Timestamp---	Temp	Chill	HIndex	Humid	Dewpt	 Wind 	HiWind	WindDir	Rain 	Barom	Solar	 ET  	 UV 
--------------	----	-----	------	-----	-----	------	------	-------	-----	-----	-----	-----	----
20090623 00:00	10.4	10.4	10.4	93	9.4	8	16	292	0.0	1020.1	0	0.000	0.0
20090623 00:05	10.4	10.4	10.4	93	9.4	6	11	292	0.0	1020.0	0	0.000	0.0
20090623 00:10	10.4	10.4	10.4	93	9.4	8	13	292	0.0	1019.9	0	0.000	0.0
20090623 00:15	10.4	10.4	10.4	93	9.4	8	13	292	0.0	1020.0	0	0.000	0.0
20090623 00:20	10.5	10.5	10.5	93	9.4	6	11	292	0.2	1020.0	0	0.000	0.0
20090623 00:25	10.5	10.5	10.5	93	9.4	8	16	315	0.0	1020.0	0	0.000	0.0
20090623 00:30	10.5	10.5	10.5	93	9.4	8	16	292	0.0	1019.9	0	0.000	0.0
20090623 00:35	10.5	10.5	10.5	93	9.4	8	18	315	0.0	1019.9	0	0.000	0.0
20090623 00:40	10.5	10.5	10.5	93	9.4	6	11	315	0.0	1019.8	0	0.000	0.0
20090623 00:45	10.5	10.5	10.5	93	9.4	8	16	315	0.0	1019.9	0	0.000	0.0
20090623 00:50	10.5	10.5	10.5	93	9.4	6	11	315	0.2	1019.8	0	0.000	0.0
20090623 00:55	10.5	10.5	10.5	93	9.4	8	16	315	0.0	1019.8	0	0.000	0.0
20090623 01:00	10.6	10.6	10.6	93	9.5	8	16	292	0.0	1019.7	0	0.000	0.0
20090623 01:05	10.6	10.6	10.6	93	9.5	6	13	292	0.0	1019.8	0	0.000	0.0
20090623 01:10	10.6	10.6	10.6	93	9.5	8	16	315	0.0	1019.7	0	0.000	0.0
20090623 01:15	10.5	10.5	10.5	93	9.4	8	14	315	0.2	1019.7	0	0.000	0.0
20090623 01:20	10.5	10.5	10.5	93	9.4	8	16	315	0.0	1019.6	0	0.000	0.0
20090623 01:25	10.5	10.5	10.5	93	9.4	8	14	315	0.0	1019.6	0	0.000	0.0
20090623 01:30	10.5	10.5	10.5	93	9.4	8	16	315	0.2	1019.6	0	0.000	0.0
20090623 01:35	10.5	10.5	10.5	93	9.4	8	16	315	0.0	1019.5	0	0.000	0.0
20090623 01:40	10.4	10.4	10.4	93	9.4	10	16	315	0.2	1019.4	0	0.000	0.0
20090623 01:45	10.4	10.4	10.4	93	9.4	8	18	315	0.0	1019.4	0	0.000	0.0
20090623 01:50	10.4	10.4	10.4	93	9.4	8	16	315	0.2	1019.3	0	0.000	0.0
20090623 01:55	10.4	10.4	10.4	93	9.4	11	23	315	0.0	1019.3	0	0.000	0.0
20090623 02:00	10.4	10.4	10.4	93	9.4	11	21	315	0.2	1019.2	0	0.000	0.0
20090623 02:05	10.4	10.4	10.4	93	9.3	11	21	315	0.0	1018.9	0	0.000	0.0
20090623 02:10	10.4	10.4	10.4	93	9.3	10	19	315	0.2	1018.8	0	0.000	0.0
20090623 02:15	10.4	10.4	10.4	93	9.3	8	16	315	0.0	1018.8	0	0.000	0.0
20090623 02:20	10.4	10.4	10.4	93	9.3	10	21	315	0.0	1018.8	0	0.000	0.0
20090623 02:25	10.4	10.4	10.4	93	9.3	11	21	315	0.2	1018.7	0	0.000	0.0
20090623 02:30	10.4	10.4	10.4	93	9.3	10	21	315	0.0	1018.7	0	0.000	0.0
20090623 02:35	10.4	10.4	10.4	93	9.3	10	16	315	0.2	1018.7	0	0.000	0.0
20090623 02:40	10.4	10.4	10.4	93	9.3	10	21	315	0.0	1018.6	0	0.000	0.0
20090623 02:45	10.4	10.4	10.4	93	9.3	10	21	315	0.2	1018.6	0	0.000	0.0
20090623 02:50	10.4	10.4	10.4	93	9.3	10	21	315	0.2	1018.6	0	0.000	0.0
20090623 02:55	10.3	10.3	10.3	93	9.3	10	18	315	0.0	1018.6	0	0.000	0.0
20090623 03:00	10.3	10.3	10.3	93	9.3	6	16	292	0.2	1018.5	0	0.000	0.0
20090623 03:05	10.3	10.3	10.3	93	9.3	8	18	315	0.2	1018.3	0	0.000	0.0
20090623 03:10	10.3	10.3	10.3	93	9.3	6	18	315	0.2	1018.4	0	0.000	0.0
20090623 03:15	10.3	10.3	10.3	93	9.3	8	18	315	0.0	1018.3	0	0.000	0.0
20090623 03:20	10.3	10.3	10.3	93	9.3	10	16	315	0.2	1018.3	0	0.000	0.0
20090623 03:25	10.3	10.3	10.3	93	9.2	10	21	315	0.0	1018.2	0	0.000	0.0
20090623 03:30	10.3	10.3	10.3	93	9.2	11	19	315	0.2	1018.1	0	0.000	0.0
20090623 03:35	10.3	10.3	10.3	93	9.2	10	19	315	0.2	1018.1	0	0.000	0.0
20090623 03:40	10.3	10.3	10.3	93	9.2	10	18	315	0.0	1018.0	0	0.000	0.0
20090623 03:45	10.3	10.3	10.3	93	9.2	8	18	315	0.2	1018.0	0	0.000	0.0
20090623 03:50	10.2	10.2	10.2	93	9.1	11	24	315	0.2	1017.9	0	0.000	0.0
20090623 03:55	10.2	10.2	10.2	93	9.1	13	21	315	0.2	1018.1	0	0.000	0.0
20090623 04:00	10.2	10.2	10.2	93	9.1	11	21	315	0.2	1017.9	0	0.000	0.0
20090623 04:05	10.2	10.2	10.2	93	9.1	13	24	292	0.0	1017.8	0	0.000	0.0
20090623 04:10	10.2	10.2	10.2	93	9.1	14	26	292	0.2	1017.6	0	0.000	0.0
20090623 04:15	10.2	10.2	10.2	93	9.1	11	21	292	0.2	1017.7	0	0.000	0.0
20090623 04:20	10.2	10.2	10.2	94	9.2	11	24	292	0.2	1017.6	0	0.000	0.0
20090623 04:25	10.2	10.2	10.2	94	9.2	14	27	292	0.2	1017.6	0	0.000	0.0
20090623 04:30	10.2	10.2	10.2	94	9.2	14	27	292	0.2	1017.6	0	0.000	0.0
20090623 04:35	10.2	10.2	10.2	94	9.2	16	27	292	0.2	1017.6	0	0.000	0.0
20090623 04:40	10.1	10.1	10.1	94	9.2	14	24	292	0.2	1017.6	0	0.000	0.0
20090623 04:45	10.1	10.1	10.1	94	9.2	14	24	292	0.4	1017.6	0	0.000	0.0
20090623 04:50	10.1	10.1	10.1	94	9.1	14	26	315	0.2	1017.6	0	0.000	0.0
20090623 04:55	10.1	10.1	10.1	94	9.2	14	24	315	0.4	1017.5	0	0.000	0.0
20090623 05:00	10.1	10.1	10.1	94	9.1	13	24	315	0.2	1017.6	0	0.000	0.0
20090623 05:05	10.1	10.1	10.1	94	9.1	14	31	315	0.2	1017.5	0	0.000	0.0
20090623 05:10	10.0	10.0	10.0	93	8.9	14	24	315	0.4	1017.6	0	0.000	0.0
20090623 05:15	10.0	10.0	10.0	93	8.9	14	24	315	0.4	1017.5	0	0.000	0.0
20090623 05:20	10.0	10.0	10.0	93	8.9	14	31	315	0.4	1017.5	0	0.000	0.0
20090623 05:25	10.0	10.0	10.0	93	8.9	16	31	315	0.4	1017.5	0	0.000	0.0
20090623 05:30	10.0	10.0	10.0	93	8.9	16	27	315	0.2	1017.4	0	0.000	0.0
20090623 05:35	10.0	10.0	10.0	93	8.9	14	26	315	0.2	1017.4	0	0.000	0.0
20090623 05:40	10.1	10.1	10.1	93	9.0	14	23	315	0.2	1017.4	0	0.000	0.0
20090623 05:45	10.1	10.1	10.1	93	9.0	10	18	315	0.4	1017.4	0	0.000	0.0
20090623 05:50	10.1	10.1	10.1	94	9.1	10	27	315	0.2	1017.2	0	0.000	0.0
20090623 05:55	10.1	10.1	10.1	94	9.1	6	16	22	0.2	1017.4	0	0.000	0.0
20090623 06:00	10.1	10.1	10.1	93	9.0	5	11	22	0.2	1017.4	0	0.000	0.0
20090623 06:05	10.1	10.1	10.1	94	9.2	6	16	315	0.0	1017.8	3	0.000	0.0
20090623 06:10	10.1	10.1	10.1	93	9.0	11	21	315	0.2	1017.8	4	0.000	0.0
20090623 06:15	10.1	10.1	10.1	94	9.1	13	19	315	0.2	1017.7	1	0.000	0.0
20090623 06:20	10.1	10.1	10.1	94	9.1	13	21	315	0.2	1017.7	3	0.000	0.0
20090623 06:25	10.1	10.1	10.1	94	9.1	11	21	315	0.0	1017.7	10	0.000	0.0
20090623 06:30	10.1	10.1	10.1	94	9.1	14	24	315	0.2	1017.7	14	0.000	0.0
20090623 06:35	10.1	10.1	10.1	94	9.2	16	24	315	0.2	1017.8	11	0.000	0.0
20090623 06:40	10.1	10.1	10.1	94	9.2	11	24	315	0.2	1017.7	11	0.000	0.0
20090623 06:45	10.1	10.1	10.1	94	9.2	8	18	315	0.0	1017.7	12	0.000	0.0
20090623 06:50	10.1	10.1	10.1	94	9.2	10	21	315	0.2	1017.8	18	0.000	0.0
20090623 06:55	10.2	10.2	10.2	94	9.2	11	21	315	0.2	1017.8	17	0.000	0.0
20090623 07:00	10.2	10.2	10.2	94	9.2	10	21	315	0.0	1017.8	21	0.025	0.0
20090623 07:05	10.2	10.2	10.2	94	9.2	11	21	315	0.2	1017.6	18	0.000	0.0
20090623 07:10	10.2	10.2	10.2	94	9.2	13	21	315	0.0	1017.6	17	0.000	0.0
20090623 07:15	10.2	10.2	10.2	94	9.3	13	21	315	0.2	1017.6	22	0.000	0.0
20090623 07:20	10.2	10.2	10.2	94	9.3	14	26	315	0.2	1017.6	27	0.000	0.0
20090623 07:25	10.2	10.2	10.2	94	9.3	14	26	315	0.0	1017.6	35	0.000	0.0
20090623 07:30	10.3	10.3	10.3	94	9.4	8	18	292	0.2	1017.6	35	0.000	0.0
20090623 07:35	10.3	10.3	10.3	94	9.4	8	16	315	0.0	1017.7	28	0.000	0.0
20090623 07:40	10.3	10.3	10.3	94	9.4	6	14	315	0.0	1017.7	27	0.000	0.0
20090623 07:45	10.3	10.3	10.3	94	9.4	8	16	315	0.2	1017.7	29	0.000	0.0
20090623 07:50	10.3	10.3	10.3	94	9.4	10	19	315	0.2	1017.7	27	0.000	0.0
20090623 07:55	10.3	10.3	10.3	94	9.4	6	11	315	0.0	1017.7	30	0.000	0.0
20090623 08:00	10.4	10.4	10.4	94	9.5	8	16	315	0.2	1017.7	31	0.025	0.0
20090623 08:05	10.4	10.4	10.4	94	9.5	10	21	315	0.0	1017.7	37	0.000	0.0
20090623 08:10	10.4	10.4	10.4	94	9.5	8	19	315	0.0	1017.6	32	0.000	0.0
20090623 08:15	10.4	10.4	10.4	94	9.5	8	18	315	0.2	1017.7	32	0.000	0.0
20090623 08:20	10.4	10.4	10.4	94	9.5	10	18	315	0.0	1017.7	48	0.000	0.0
20090623 08:25	10.4	10.4	10.4	94	9.5	10	18	315	0.0	1017.7	53	0.000	0.0
20090623 08:30	10.5	10.5	10.5	94	9.6	8	18	315	0.0	1017.7	46	0.000	0.0
20090623 08:35	10.6	10.6	10.6	94	9.6	5	18	315	0.2	1017.7	71	0.000	0.3
20090623 08:40	10.6	10.6	10.6	94	9.7	6	16	315	0.0	1017.8	74	0.000	0.3
20090623 08:45	10.6	10.6	10.6	94	9.7	5	19	315	0.0	1017.8	63	0.000	0.0
20090623 08:50	10.6	10.6	10.6	94	9.7	6	11	292	0.0	1017.7	52	0.000	0.0
20090623 08:55	10.6	10.6	10.6	94	9.7	6	16	315	0.2	1017.7	53	0.000	0.0
20090623 09:00	10.6	10.6	10.6	94	9.7	8	19	315	0.0	1017.7	46	0.025	0.0
20090623 09:05	10.6	10.6	10.6	94	9.7	8	18	315	0.0	1017.8	50	0.000	0.0
20090623 09:10	10.6	10.6	10.6	94	9.7	8	18	315	0.0	1017.8	53	0.000	0.1
20090623 09:15	10.7	10.7	10.7	94	9.7	10	19	292	0.0	1017.7	75	0.000	0.5
20090623 09:20	10.7	10.7	10.7	94	9.7	10	21	315	0.2	1017.7	80	0.000	0.6
20090623 09:25	10.7	10.7	10.7	94	9.8	6	14	315	0.0	1017.7	59	0.000	0.1
20090623 09:30	10.7	10.7	10.7	94	9.8	10	23	315	0.0	1017.8	60	0.000	0.2
20090623 09:35	10.7	10.7	10.7	94	9.8	8	24	315	0.0	1017.8	55	0.000	0.1
20090623 09:40	10.7	10.7	10.7	94	9.8	6	13	315	0.0	1017.8	47	0.000	0.0
20090623 09:45	10.7	10.7	10.7	94	9.8	8	16	315	0.0	1017.7	57	0.000	0.2
20090623 09:50	10.7	10.7	10.7	94	9.8	6	14	292	0.0	1017.8	65	0.000	0.4
20090623 09:55	10.8	10.8	10.8	94	9.9	3	11	315	0.2	1017.8	58	0.000	0.2
20090623 10:00	10.8	10.8	10.8	94	9.9	5	11	315	0.0	1017.7	59	0.025	0.4
20090623 10:05	10.8	10.8	10.8	94	9.9	5	13	315	0.2	1017.7	88	0.000	0.7
20090623 10:10	10.8	10.8	10.8	94	9.9	5	14	315	0.0	1017.7	75	0.000	0.6
20090623 10:15	10.8	10.8	10.8	94	9.9	3	10	315	0.0	1017.6	108	0.000	0.9
20090623 10:20	10.9	10.9	10.9	94	10.0	5	16	315	0.0	1017.7	69	0.000	0.4
20090623 10:25	10.8	10.8	10.8	94	9.9	5	11	292	0.0	1017.5	110	0.000	1.0
20090623 10:30	10.9	10.9	10.9	94	10.0	3	11	315	0.0	1017.5	116	0.000	1.0
20090623 10:35	10.9	10.9	10.9	94	10.0	5	14	292	0.2	1017.5	106	0.000	1.0
20090623 10:40	10.8	10.8	10.8	93	9.7	5	16	315	0.0	1017.5	87	0.000	0.8
20090623 10:45	10.8	10.8	10.8	93	9.7	8	16	315	0.2	1017.6	67	0.000	0.6
20090623 10:50	10.8	10.8	10.8	93	9.7	6	14	315	0.2	1017.7	71	0.000	0.7
20090623 10:55	10.8	10.8	10.8	93	9.7	6	16	315	0.2	1017.6	109	0.000	1.1
20090623 11:00	10.8	10.8	10.8	93	9.7	8	23	292	0.2	1017.6	121	0.051	1.2
20090623 11:05	10.8	10.8	10.8	94	9.9	8	21	315	0.0	1017.5	117	0.000	1.2
20090623 11:10	10.8	10.8	10.8	93	9.7	10	23	315	0.2	1017.5	114	0.000	1.1
20090623 11:15	10.8	10.8	10.8	93	9.7	11	23	315	0.2	1017.5	110	0.000	1.1
20090623 11:20	10.8	10.8	10.8	94	9.9	10	26	315	0.0	1017.5	140	0.000	1.4
20090623 11:25	10.9	10.9	10.9	94	10.0	10	24	315	0.2	1017.5	125	0.000	1.3
20090623 11:30	10.8	10.8	10.8	93	9.7	14	27	315	0.0	1017.5	133	0.000	1.3
20090623 11:35	10.8	10.8	10.8	93	9.7	10	21	315	0.0	1017.6	125	0.000	1.3
20090623 11:40	10.7	10.7	10.7	93	9.6	10	24	315	0.2	1017.6	116	0.000	1.2
20090623 11:45	10.7	10.7	10.7	93	9.6	11	26	315	0.0	1017.6	103	0.000	1.1
20090623 11:50	10.7	10.7	10.7	93	9.6	11	24	315	0.2	1017.6	108	0.000	1.1
20090623 11:55	10.7	10.7	10.7	93	9.6	13	27	315	0.0	1017.6	126	0.000	1.4
20090623 12:00	10.8	10.8	10.8	93	9.7	11	18	315	0.2	1017.6	124	0.076	1.3
20090623 12:05	10.8	10.8	10.8	93	9.7	11	19	315	0.0	1017.6	123	0.000	1.2
20090623 12:10	10.8	10.8	10.8	93	9.7	10	18	315	0.2	1017.6	97	0.000	1.0
20090623 12:15	10.8	10.8	10.8	93	9.7	13	21	315	0.2	1017.6	119	0.000	1.2
20090623 12:20	10.8	10.8	10.8	93	9.7	14	24	292	0.2	1017.6	125	0.000	1.3
20090623 12:25	10.8	10.8	10.8	93	9.7	16	26	315	0.2	1017.5	140	0.000	1.4
20090623 12:30	10.8	10.8	10.8	93	9.7	14	23	315	0.2	1017.5	132	0.000	1.4
20090623 12:35	10.8	10.8	10.8	93	9.7	13	23	315	0.2	1017.5	161	0.000	1.8
20090623 12:40	10.9	10.9	10.9	93	9.9	13	23	292	0.0	1017.4	184	0.000	1.9
20090623 12:45	10.9	10.9	10.9	93	9.9	13	24	292	0.0	1017.4	126	0.000	1.3
20090623 12:50	10.9	10.9	10.9	93	9.9	11	19	292	0.2	1017.4	112	0.000	1.1
20090623 12:55	10.9	10.9	10.9	93	9.8	11	21	292	0.2	1017.3	162	0.000	1.7
20090623 13:00	10.9	10.9	10.9	93	9.9	13	24	292	0.0	1017.2	197	0.076	2.1
20090623 13:05	10.9	10.9	10.9	93	9.9	11	23	292	0.2	1017.2	155	0.000	1.6
20090623 13:10	10.9	10.9	10.9	93	9.9	13	24	292	0.0	1017.1	149	0.000	1.6
20090623 13:15	10.9	10.9	10.9	93	9.9	11	19	292	0.0	1017.1	127	0.000	1.3
20090623 13:20	10.9	10.9	10.9	93	9.9	11	21	292	0.0	1017.0	103	0.000	1.1
20090623 13:25	10.9	10.9	10.9	93	9.8	11	24	315	0.2	1017.0	78	0.000	0.8
20090623 13:30	10.8	10.8	10.8	93	9.7	11	23	292	0.2	1017.1	84	0.000	0.9
20090623 13:35	10.8	10.8	10.8	93	9.7	11	21	292	0.2	1017.1	98	0.000	1.1
20090623 13:40	10.8	10.8	10.8	93	9.7	13	23	292	0.2	1017.1	82	0.000	0.9
20090623 13:45	10.8	10.8	10.8	93	9.7	11	23	292	0.4	1016.9	105	0.000	1.1
20090623 13:50	10.8	10.8	10.8	93	9.7	13	24	292	0.2	1017.0	124	0.000	1.3
20090623 13:55	10.9	10.9	10.9	93	9.8	14	24	292	0.2	1016.9	119	0.000	1.3
20090623 14:00	10.8	10.8	10.8	93	9.7	13	26	292	0.2	1016.9	95	0.051	1.0
20090623 14:05	10.8	10.8	10.8	93	9.7	11	23	292	0.2	1016.9	76	0.000	0.8
20090623 14:10	10.8	10.8	10.8	93	9.7	14	24	292	0.4	1017.0	101	0.000	1.1
20090623 14:15	10.8	10.8	10.8	93	9.7	13	23	292	0.4	1017.0	91	0.000	1.0
20090623 14:20	10.8	10.8	10.8	93	9.7	11	24	292	0.2	1017.0	79	0.000	0.9
20090623 14:25	10.8	10.8	10.8	93	9.7	11	19	292	0.2	1017.0	71	0.000	0.8
20090623 14:30	10.8	10.8	10.8	93	9.7	10	19	292	0.4	1017.0	66	0.000	0.7
20090623 14:35	10.8	10.8	10.8	93	9.7	11	21	292	0.2	1016.9	60	0.000	0.6
20090623 14:40	10.8	10.8	10.8	93	9.7	13	21	292	0.2	1017.0	53	0.000	0.2
20090623 14:45	10.8	10.8	10.8	93	9.7	10	19	292	0.2	1017.1	61	0.000	0.6
20090623 14:50	10.8	10.8	10.8	93	9.7	11	23	292	0.2	1017.1	55	0.000	0.3
20090623 14:55	10.8	10.8	10.8	93	9.7	13	26	292	0.0	1017.1	47	0.000	0.0
20090623 15:00	10.7	10.7	10.7	93	9.6	10	18	292	0.0	1017.1	52	0.051	0.2
20090623 15:05	10.8	10.8	10.8	93	9.7	11	26	292	0.2	1017.2	75	0.000	0.7
20090623 15:10	10.8	10.8	10.8	93	9.7	11	21	292	0.2	1017.2	64	0.000	0.6
20090623 15:15	10.8	10.8	10.8	94	9.9	11	21	292	0.0	1017.2	49	0.000	0.0
20090623 15:20	10.8	10.8	10.8	94	9.9	11	23	292	0.2	1017.2	62	0.000	0.5
20090623 15:25	10.8	10.8	10.8	94	9.9	11	23	292	0.0	1017.2	66	0.000	0.6
20090623 15:30	10.8	10.8	10.8	93	9.7	10	21	292	0.2	1017.2	71	0.000	0.7
20090623 15:35	10.8	10.8	10.8	94	9.9	11	18	292	0.2	1017.2	72	0.000	0.7
20090623 15:40	10.8	10.8	10.8	94	9.9	11	19	292	0.2	1017.2	79	0.000	0.7
20090623 15:45	10.8	10.8	10.8	94	9.9	11	23	292	0.2	1017.0	69	0.000	0.7
20090623 15:50	10.8	10.8	10.8	94	9.9	11	23	292	0.0	1017.0	60	0.000	0.4
20090623 15:55	10.8	10.8	10.8	94	9.9	11	21	292	0.0	1017.0	47	0.000	0.0
20090623 16:00	10.8	10.8	10.8	94	9.9	10	18	292	0.2	1017.1	37	0.025	0.0
20090623 16:05	10.8	10.8	10.8	94	9.9	11	19	292	0.0	1017.1	32	0.000	0.0
20090623 16:10	10.8	10.8	10.8	94	9.9	11	24	292	0.2	1017.3	31	0.000	0.0
20090623 16:15	10.7	10.7	10.7	93	9.6	8	18	315	0.2	1017.3	30	0.000	0.0
20090623 16:20	10.7	10.7	10.7	94	9.8	10	21	315	0.0	1017.2	37	0.000	0.0
20090623 16:25	10.8	10.8	10.8	94	9.9	8	18	292	0.2	1017.1	41	0.000	0.0
20090623 16:30	10.8	10.8	10.8	94	9.9	8	16	292	0.2	1017.2	51	0.000	0.0
20090623 16:35	10.8	10.8	10.8	94	9.9	10	18	292	0.2	1016.9	54	0.000	0.1
20090623 16:40	10.8	10.8	10.8	94	9.9	11	21	292	0.2	1016.8	65	0.000	0.6
20090623 16:45	10.9	10.9	10.9	94	10.0	10	18	292	0.2	1016.9	53	0.000	0.3
20090623 16:50	10.8	10.8	10.8	94	9.9	10	21	292	0.2	1016.9	51	0.000	0.0
20090623 16:55	10.8	10.8	10.8	94	9.9	8	18	292	0.0	1016.9	47	0.000	0.0
20090623 17:00	10.8	10.8	10.8	94	9.9	8	18	315	0.2	1017.0	41	0.025	0.0
20090623 17:05	10.8	10.8	10.8	94	9.9	8	18	292	0.0	1017.1	34	0.000	0.0
20090623 17:10	10.8	10.8	10.8	94	9.9	10	19	292	0.2	1017.0	42	0.000	0.0
20090623 17:15	10.8	10.8	10.8	94	9.9	10	18	292	0.2	1017.0	45	0.000	0.0
20090623 17:20	10.8	10.8	10.8	94	9.9	11	19	292	0.2	1017.0	40	0.000	0.0
20090623 17:25	10.8	10.8	10.8	94	9.9	10	19	292	0.2	1017.1	34	0.000	0.0
20090623 17:30	10.8	10.8	10.8	94	9.9	10	18	292	0.2	1017.0	28	0.000	0.0
20090623 17:35	10.8	10.8	10.8	94	9.9	10	18	292	0.0	1017.1	28	0.000	0.0
20090623 17:40	10.8	10.8	10.8	94	9.9	10	16	292	0.2	1017.1	21	0.000	0.0
20090623 17:45	10.8	10.8	10.8	94	9.9	10	19	292	0.0	1017.2	17	0.000	0.0
20090623 17:50	10.8	10.8	10.8	94	9.9	10	18	315	0.2	1017.2	18	0.000	0.0
20090623 17:55	10.8	10.8	10.8	94	9.9	8	16	315	0.0	1017.2	27	0.000	0.0
20090623 18:00	10.9	10.9	10.9	94	10.0	6	11	315	0.0	1017.1	27	0.025	0.0
20090623 18:05	10.9	10.9	10.9	94	10.0	8	18	315	0.2	1017.1	28	0.000	0.0
20090623 18:10	10.9	10.9	10.9	94	10.0	6	16	315	0.0	1017.0	29	0.000	0.0
20090623 18:15	10.9	10.9	10.9	94	10.0	6	10	315	0.0	1017.1	38	0.000	0.0
20090623 18:20	10.9	10.9	10.9	94	10.0	8	16	315	0.2	1017.1	25	0.000	0.0
20090623 18:25	10.9	10.9	10.9	94	10.0	6	16	315	0.0	1017.1	19	0.000	0.0
20090623 18:30	10.9	10.9	10.9	94	10.0	8	18	315	0.2	1017.0	20	0.000	0.0
20090623 18:35	10.9	10.9	10.9	94	10.0	6	14	315	0.0	1017.0	20	0.000	0.0
20090623 18:40	10.9	10.9	10.9	94	10.0	8	14	315	0.0	1017.0	16	0.000	0.0
20090623 18:45	10.9	10.9	10.9	94	10.0	8	13	315	0.2	1017.0	15	0.000	0.0
20090623 18:50	10.9	10.9	10.9	94	10.0	8	16	315	0.0	1017.0	15	0.000	0.0
20090623 18:55	10.9	10.9	10.9	94	10.0	6	14	315	0.2	1017.0	18	0.000	0.0
20090623 19:00	10.9	10.9	10.9	94	10.0	8	16	315	0.2	1017.0	16	0.025	0.0
20090623 19:05	10.9	10.9	10.9	94	10.0	6	13	315	0.0	1017.1	14	0.000	0.0
20090623 19:10	10.9	10.9	10.9	94	10.0	6	11	315	0.0	1017.1	12	0.000	0.0
20090623 19:15	10.9	10.9	10.9	94	10.0	6	11	315	0.2	1017.1	16	0.000	0.0
20090623 19:20	10.9	10.9	10.9	94	10.0	6	11	315	0.2	1017.1	16	0.000	0.0
20090623 19:25	10.9	10.9	10.9	94	10.0	5	11	315	0.4	1017.1	17	0.000	0.0
20090623 19:30	10.9	10.9	10.9	94	10.0	6	10	292	0.4	1017.2	13	0.000	0.0
20090623 19:35	10.9	10.9	10.9	94	10.0	6	11	315	0.4	1017.3	12	0.000	0.0
20090623 19:40	10.9	10.9	10.9	94	10.0	5	10	315	0.2	1017.3	8	0.000	0.0
20090623 19:45	10.9	10.9	10.9	94	10.0	5	11	292	0.2	1017.3	7	0.000	0.0
20090623 19:50	10.9	10.9	10.9	94	10.0	6	11	292	0.4	1017.2	3	0.000	0.0
20090623 19:55	10.9	10.9	10.9	94	10.0	6	11	292	0.0	1017.2	0	0.000	0.0
20090623 20:00	10.9	10.9	10.9	94	10.0	6	10	292	0.2	1017.3	0	0.000	0.0
20090623 20:05	10.9	10.9	10.9	94	10.0	6	11	292	0.2	1017.3	0	0.000	0.0
20090623 20:10	10.9	10.9	10.9	94	10.0	5	10	292	0.0	1017.3	0	0.000	0.0
20090623 20:15	10.9	10.9	10.9	94	10.0	5	10	292	0.0	1017.3	0	0.000	0.0
20090623 20:20	10.9	10.9	10.9	94	10.0	6	11	292	0.2	1017.3	0	0.000	0.0
20090623 20:25	10.9	10.9	10.9	94	10.0	8	14	292	0.2	1017.3	0	0.000	0.0
20090623 20:30	10.9	10.9	10.9	94	10.0	6	16	292	0.2	1017.3	0	0.000	0.0
20090623 20:35	10.9	10.9	10.9	94	10.0	6	14	292	0.2	1017.2	0	0.000	0.0
20090623 20:40	10.9	10.9	10.9	94	10.0	6	14	292	0.2	1017.2	0	0.000	0.0
20090623 20:45	10.9	10.9	10.9	94	10.0	5	11	292	0.2	1017.3	0	0.000	0.0
20090623 20:50	10.9	10.9	10.9	94	10.0	5	8	292	0.0	1017.3	0	0.000	0.0
20090623 20:55	10.9	10.9	10.9	94	10.0	5	8	292	0.2	1017.3	0	0.000	0.0
20090623 21:00	10.9	10.9	10.9	94	10.0	5	8	292	0.0	1017.4	0	0.000	0.0
20090623 21:05	10.9	10.9	10.9	94	10.0	5	8	292	0.4	1017.2	0	0.000	0.0
20090623 21:10	10.9	10.9	10.9	94	10.0	5	10	248	0.2	1017.2	0	0.000	0.0
20090623 21:15	11.0	11.0	11.0	94	10.1	6	11	292	0.2	1017.2	0	0.000	0.0
20090623 21:20	11.0	11.0	11.0	94	10.1	5	8	292	0.0	1017.2	0	0.000	0.0
20090623 21:25	11.0	11.0	11.0	95	10.2	5	8	292	0.0	1017.3	0	0.000	0.0
20090623 21:30	11.0	11.0	11.0	95	10.2	5	10	292	0.0	1017.3	0	0.000	0.0
20090623 21:35	11.0	11.0	11.0	95	10.2	5	11	292	0.0	1017.3	0	0.000	0.0
20090623 21:40	11.1	11.1	11.1	95	10.3	5	8	292	0.0	1017.3	0	0.000	0.0
20090623 21:45	11.1	11.1	11.1	95	10.3	3	8	292	0.2	1017.4	0	0.000	0.0
20090623 21:50	11.2	11.2	11.2	95	10.4	3	6	292	0.0	1017.4	0	0.000	0.0
20090623 21:55	11.2	11.2	11.2	95	10.4	3	5	292	0.0	1017.4	0	0.000	0.0
20090623 22:00	11.2	11.2	11.2	95	10.4	5	8	292	0.0	1017.3	0	0.000	0.0
20090623 22:05	11.2	11.2	11.2	95	10.4	3	6	292	0.0	1017.5	0	0.000	0.0
20090623 22:10	11.2	11.2	11.2	95	10.4	2	6	292	0.0	1017.5	0	0.000	0.0
20090623 22:15	11.2	11.2	11.2	95	10.4	5	10	315	0.0	1017.5	0	0.000	0.0
20090623 22:20	11.3	11.3	11.3	95	10.5	5	8	315	0.2	1017.5	0	0.000	0.0
20090623 22:25	11.3	11.3	11.3	95	10.5	5	14	315	0.2	1017.5	0	0.000	0.0
20090623 22:30	11.3	11.3	11.3	95	10.6	5	14	292	0.0	1017.5	0	0.000	0.0
20090623 22:35	11.4	11.4	11.4	95	10.6	3	8	315	0.2	1017.3	0	0.000	0.0
20090623 22:40	11.4	11.4	11.4	95	10.6	0	5	315	0.2	1017.3	0	0.000	0.0
20090623 22:45	11.4	11.4	11.4	95	10.7	5	13	315	0.0	1017.3	0	0.000	0.0
20090623 22:50	11.4	11.4	11.4	95	10.7	5	10	292	0.0	1017.3	0	0.000	0.0
20090623 22:55	11.5	11.5	11.5	95	10.7	3	8	292	0.0	1017.2	0	0.000	0.0
20090623 23:00	11.5	11.5	11.5	95	10.7	5	10	315	0.0	1017.3	0	0.000	0.0
20090623 23:05	11.5	11.5	11.5	95	10.7	3	6	292	0.0	1017.2	0	0.000	0.0
20090623 23:10	11.5	11.5	11.5	95	10.7	3	6	292	0.2	1017.1	0	0.000	0.0
20090623 23:15	11.5	11.5	11.5	95	10.7	6	11	292	0.0	1017.1	0	0.000	0.0
20090623 23:20	11.4	11.4	11.4	95	10.7	6	10	292	0.0	1017.1	0	0.000	0.0
20090623 23:25	11.4	11.4	11.4	95	10.7	5	10	248	0.2	1017.1	0	0.000	0.0
20090623 23:30	11.4	11.4	11.4	95	10.7	6	14	270	0.0	1017.0	0	0.000	0.0
20090623 23:35	11.4	11.4	11.4	95	10.6	8	18	270	0.0	1017.0	0	0.000	0.0
20090623 23:40	11.4	11.4	11.4	95	10.6	6	11	292	0.0	1017.0	0	0.000	0.0
20090623 23:45	11.4	11.4	11.4	95	10.6	8	14	270	0.0	1016.9	0	0.000	0.0
20090623 23:50	11.3	11.3	11.3	95	10.6	6	14	292	0.4	1017.0	0	0.000	0.0
20090623 23:55	11.4	11.4	11.4	95	10.6	6	10	270	0.2	1017.0	0	0.000	0.0



Please note the license to use and transfer of this data:
http://creativecommons.org/licenses/by-nc-sa/3.0/deed.en

Bitte beachten sie die Lizenz zur Verwertung und Weitergabe der Daten:
http://creativecommons.org/licenses/by-nc-sa/3.0/deed.de

zurück zur Übersicht der Archivdaten (Monats und Tagesdaten)

Cookies helfen bei der Bereitstellung von Inhalten. Durch die Nutzung dieser Seiten erklärst du dich damit einverstanden, dass Cookies auf deinem Rechner gespeichert werden. Weitere Information